Time;durP1;ratioP1;P1;durP2;ratioP2;P2;SDS_P1;SDS_P2;PMS_P1;PMS_P2;Temp;Humidity;BMP_temperature;BMP_pressure;BME280_temperature;BME280_humidity;BME280_pressure;Samples;Min_cycle;Max_cycle;Signal;HPM_P1;HPM_P2
2022/07/11 00:01:15;;;;;;;0.10;0.10;;;;;;;20.96;49.41;101829.66;7356822;19;20054;-62
2022/07/11 00:03:40;;;;;;;0.00;0.00;;;;;;;20.99;49.27;101840.16;7357251;19;20017;-62
2022/07/11 00:06:05;;;;;;;0.00;0.00;;;;;;;20.88;49.69;101831.84;7356445;19;20017;-62
2022/07/11 00:08:31;;;;;;;0.03;0.03;;;;;;;20.89;49.93;101830.03;7357757;19;20759;-62
2022/07/11 00:10:56;;;;;;;0.00;0.00;;;;;;;20.86;50.07;101833.69;7357530;19;20018;-61
2022/07/11 00:13:22;;;;;;;0.00;0.00;;;;;;;20.81;49.96;101826.88;7354802;19;20022;-62
2022/07/11 00:15:47;;;;;;;0.00;0.00;;;;;;;20.79;50.61;101828.75;7354665;19;20010;-61
2022/07/11 00:18:13;;;;;;;0.10;0.10;;;;;;;20.75;50.24;101825.38;7357694;19;20010;-62
2022/07/11 00:20:38;;;;;;;0.00;0.00;;;;;;;20.70;50.28;101822.94;7355040;19;20018;-62
2022/07/11 00:23:03;;;;;;;0.03;0.03;;;;;;;20.65;50.32;101818.78;7355985;19;20811;-62
2022/07/11 00:25:29;;;;;;;0.00;0.00;;;;;;;20.51;50.40;101800.84;7355658;19;20113;-62
2022/07/11 00:27:54;;;;;;;0.00;0.00;;;;;;;20.58;50.22;101812.91;7356150;19;20021;-61
2022/07/11 00:30:20;;;;;;;0.03;0.03;;;;;;;20.56;50.55;101808.59;7357418;19;20006;-62
2022/07/11 00:32:45;;;;;;;0.10;0.10;;;;;;;20.52;50.33;101801.69;7355959;19;20050;-62
2022/07/11 00:35:11;;;;;;;0.03;0.03;;;;;;;20.47;51.28;101800.13;7356651;19;20017;-62
2022/07/11 00:37:36;;;;;;;0.00;0.00;;;;;;;20.44;51.79;101797.59;7355035;19;20134;-62
2022/07/11 00:40:02;;;;;;;0.00;0.00;;;;;;;20.40;51.04;101788.06;7357415;19;20018;-62
2022/07/11 00:42:28;;;;;;;0.00;0.00;;;;;;;20.37;52.36;101780.22;7355404;19;20663;-62
2022/07/11 00:44:53;;;;;;;0.03;0.03;;;;;;;20.24;51.92;101765.81;7358161;19;20006;-62
2022/07/11 00:47:18;;;;;;;0.00;0.00;;;;;;;20.29;51.89;101779.72;7354474;19;20021;-62
2022/07/11 00:49:44;;;;;;;0.03;0.03;;;;;;;20.25;52.63;101772.00;7356275;19;20105;-62
2022/07/11 00:52:10;;;;;;;0.10;0.10;;;;;;;20.22;52.20;101767.66;7356208;19;20054;-62
2022/07/11 00:54:35;;;;;;;0.00;0.00;;;;;;;20.20;51.71;101769.53;7355933;19;20020;-62
2022/07/11 00:57:01;;;;;;;0.00;0.00;;;;;;;20.17;51.85;101769.66;7354576;19;20006;-62
2022/07/11 00:59:29;;;;;;;0.00;0.00;;;;;;;20.14;51.52;101772.47;7356080;19;20018;-62
2022/07/11 01:01:54;;;;;;;;;;;;;;;20.10;49.02;101769.09;7356554;19;20014;-61
2022/07/11 01:04:21;;;;;;;0.00;0.00;;;;;;;20.07;51.46;101776.31;7355881;19;19925;-62
2022/07/11 01:06:46;;;;;;;0.00;0.00;;;;;;;20.04;51.23;101779.13;7354036;19;20011;-62
2022/07/11 01:09:12;;;;;;;0.00;0.00;;;;;;;19.98;51.27;101772.31;7354333;19;20017;-63
2022/07/11 01:11:37;;;;;;;0.00;0.00;;;;;;;19.95;51.08;101780.41;7355865;19;20007;-63
2022/07/11 01:14:02;;;;;;;0.00;0.00;;;;;;;19.84;51.23;101767.63;7353707;19;20010;-62
2022/07/11 01:16:28;;;;;;;0.00;0.00;;;;;;;19.79;51.42;101763.47;7353832;19;20134;-62
2022/07/11 01:18:55;;;;;;;0.00;0.00;;;;;;;19.82;51.15;101774.78;7354572;19;21067;-62
2022/07/11 01:21:26;;;;;;;0.00;0.00;;;;;;;19.79;49.88;101774.91;7353484;19;20010;-62
2022/07/11 01:23:54;;;;;;;0.00;0.00;;;;;;;19.73;50.68;101764.59;7359629;19;20442;-61
2022/07/11 01:26:22;;;;;;;0.00;0.00;;;;;;;19.71;50.20;101766.44;7363208;19;20010;-62
2022/07/11 01:28:47;;;;;;;0.00;0.00;;;;;;;19.66;51.00;101757.81;7360010;19;20018;-62
2022/07/11 01:31:13;;;;;;;0.00;0.00;;;;;;;19.61;50.74;101754.50;7362267;19;20010;-62
2022/07/11 01:33:39;;;;;;;0.00;0.00;;;;;;;19.56;51.45;101751.16;7360943;19;20007;-62
2022/07/11 01:36:05;;;;;;;0.00;0.00;;;;;;;19.54;51.31;101753.03;7361958;19;20753;-62
2022/07/11 01:38:31;;;;;;;0.10;0.10;;;;;;;19.50;51.16;101759.38;7360527;19;20536;-62
2022/07/11 01:40:56;;;;;;;0.00;0.00;;;;;;;19.44;51.15;101753.44;7359409;19;20010;-62
2022/07/11 01:43:22;;;;;;;0.05;0.05;;;;;;;19.32;51.09;101743.38;7358072;19;20020;-62
2022/07/11 01:45:54;;;;;;;0.00;0.00;;;;;;;19.39;50.69;101759.84;7360860;19;20030;-63
2022/07/11 01:48:20;;;;;;;0.00;0.00;;;;;;;19.32;51.40;101753.09;7360379;19;20021;-62
2022/07/11 01:50:46;;;;;;;0.00;0.00;;;;;;;19.29;52.15;101747.94;7362795;19;20125;-62
2022/07/11 01:53:12;;;;;;;0.00;0.00;;;;;;;19.27;51.30;101758.59;7360395;19;20007;-62
2022/07/11 01:55:38;;;;;;;0.00;0.00;;;;;;;19.21;51.62;101753.56;7361977;19;24790;-62
2022/07/11 01:58:03;;;;;;;0.00;0.00;;;;;;;19.19;51.38;101752.75;7353407;19;20022;-62
2022/07/11 02:00:29;;;;;;;0.10;0.10;;;;;;;19.16;51.47;101755.53;7366789;19;20014;-62
2022/07/11 02:02:54;;;;;;;0.00;0.00;;;;;;;19.13;52.02;101758.31;7364734;19;20085;-62
2022/07/11 02:05:19;;;;;;;0.00;0.00;;;;;;;19.11;52.07;101757.50;7366635;19;20019;-62
2022/07/11 02:10:29;;;;;;;0.00;0.00;;;;;;;19.04;52.13;101758.69;7364278;19;20405;-62
2022/07/11 02:12:58;;;;;;;0.10;0.10;;;;;;;18.97;51.44;101747.50;7365650;19;20003;-62
2022/07/11 02:15:25;;;;;;;0.00;0.00;;;;;;;18.98;51.92;101751.00;7363369;19;20078;-62
2022/07/11 02:17:51;;;;;;;0.00;0.00;;;;;;;18.95;51.99;101746.69;7367539;19;20033;-62
2022/07/11 02:20:17;;;;;;;0.00;0.00;;;;;;;18.86;52.33;101737.34;7364086;19;20006;-62
2022/07/11 02:22:43;;;;;;;0.00;0.00;;;;;;;18.84;52.44;101736.53;7364938;19;20007;-62
2022/07/11 02:25:08;;;;;;;0.00;0.00;;;;;;;18.86;52.67;101747.94;7358970;19;20013;-62
2022/07/11 02:27:34;;;;;;;0.00;0.00;;;;;;;18.81;52.87;101734.03;7365131;19;20603;-62
2022/07/11 02:29:59;;;;;;;0.00;0.00;;;;;;;18.82;53.13;101743.69;7363891;19;20700;-62
2022/07/11 02:32:25;;;;;;;0.00;0.00;;;;;;;18.81;53.24;101746.41;7364010;19;20050;-62
2022/07/11 02:34:50;;;;;;;0.00;0.00;;;;;;;18.78;53.04;101743.88;7360875;19;20105;-62
2022/07/11 02:37:15;;;;;;;0.00;0.00;;;;;;;18.76;53.26;101736.00;7365843;19;20048;-62
2022/07/11 02:39:41;;;;;;;0.00;0.00;;;;;;;18.74;53.75;101735.19;7365009;19;20455;-62
2022/07/11 02:42:06;;;;;;;0.00;0.00;;;;;;;18.71;53.40;101731.81;7362028;19;20034;-62
2022/07/11 02:44:32;;;;;;;0.00;0.00;;;;;;;18.69;52.73;101726.56;7363220;19;20616;-62
2022/07/11 02:46:57;;;;;;;0.00;0.00;;;;;;;18.67;53.66;101728.38;7365712;19;20101;-62
2022/07/11 02:49:23;;;;;;;0.00;0.00;;;;;;;18.63;52.91;101735.56;7364658;19;20014;-62
2022/07/11 02:51:48;;;;;;;0.00;0.00;;;;;;;18.60;52.76;101732.19;7365492;19;20007;-62
2022/07/11 02:54:14;;;;;;;0.00;0.00;;;;;;;18.56;52.84;101725.31;7364849;19;20011;-62
2022/07/11 02:56:39;;;;;;;0.00;0.00;;;;;;;18.53;52.79;101725.44;7365705;19;20584;-62
2022/07/11 02:59:04;;;;;;;0.00;0.00;;;;;;;18.50;52.83;101730.81;7364527;19;20047;-62
2022/07/11 03:01:30;;;;;;;0.00;0.00;;;;;;;18.47;52.69;101730.97;7364992;19;20401;-62
2022/07/11 03:03:55;;;;;;;0.00;0.00;;;;;;;18.42;52.65;101724.06;7352442;19;20017;-62
2022/07/11 03:06:21;;;;;;;0.10;0.10;;;;;;;18.37;52.52;101726.03;7366702;19;20007;-62
2022/07/11 03:08:47;;;;;;;0.00;0.00;;;;;;;18.33;52.93;101721.78;7366399;19;20015;-62
2022/07/11 03:11:12;;;;;;;0.00;0.00;;;;;;;18.29;53.29;101720.16;7365314;19;20459;-62
2022/07/11 03:13:37;;;;;;;0.00;0.00;;;;;;;18.25;52.98;101710.66;7362687;19;20122;-62
2022/07/11 03:16:03;;;;;;;0.00;0.00;;;;;;;18.23;52.96;101715.13;7368399;19;20018;-62
2022/07/11 03:18:29;;;;;;;0.00;0.00;;;;;;;18.19;53.01;101702.94;7364489;19;20668;-62
2022/07/11 03:20:54;;;;;;;0.00;0.00;;;;;;;18.19;53.03;101705.56;7358619;19;20045;-62
2022/07/11 03:23:19;;;;;;;0.00;0.00;;;;;;;18.15;52.98;101699.56;7367857;19;20031;-62
2022/07/11 03:25:45;;;;;;;0.10;0.10;;;;;;;18.08;52.71;101692.75;7367527;19;20336;-62
2022/07/11 03:28:10;;;;;;;0.00;0.00;;;;;;;18.12;53.01;101706.75;7365384;19;20006;-62
2022/07/11 03:30:36;;;;;;;0.00;0.00;;;;;;;18.10;53.60;101705.94;7364486;19;20013;-62
2022/07/11 03:33:01;;;;;;;0.00;0.00;;;;;;;18.09;53.56;101706.84;7360845;19;20006;-62
2022/07/11 03:35:41;;;;;;;0.10;0.10;;;;;;;18.07;53.86;101706.06;7365906;19;20013;-62
2022/07/11 03:38:10;;;;;;;0.00;0.00;;;;;;;17.96;54.77;101692.38;7360741;19;20003;-62
2022/07/11 03:40:35;;;;;;;0.05;0.05;;;;;;;18.05;54.49;101713.19;7364495;19;20010;-61
2022/07/11 03:43:01;;;;;;;0.00;0.00;;;;;;;18.02;55.05;101714.16;7366867;19;20365;-62
2022/07/11 03:45:27;;;;;;;0.05;0.05;;;;;;;18.01;55.78;101706.28;7364861;19;20018;-62
2022/07/11 03:47:53;;;;;;;0.00;0.00;;;;;;;17.91;54.32;101691.69;7365049;19;20006;-61
2022/07/11 03:50:19;;;;;;;0.08;0.08;;;;;;;17.96;55.08;101708.25;7365612;19;20051;-62
2022/07/11 03:52:45;;;;;;;0.00;0.00;;;;;;;17.97;55.44;101712.59;7362004;19;20003;-62
2022/07/11 03:55:11;;;;;;;0.00;0.00;;;;;;;17.96;55.52;101703.81;7358367;19;20034;-61
2022/07/11 03:57:36;;;;;;;0.00;0.00;;;;;;;17.95;56.23;101706.53;7365792;19;20482;-62
2022/07/11 04:00:05;;;;;;;0.00;0.00;;;;;;;17.95;55.52;101706.53;7364528;19;20077;-61
2022/07/11 04:02:31;;;;;;;0.00;0.00;;;;;;;17.93;56.13;101713.63;7366421;19;20017;-62
2022/07/11 04:04:56;;;;;;;0.00;0.00;;;;;;;17.91;55.96;101710.19;7362174;19;20359;-62
2022/07/11 04:07:22;;;;;;;0.10;0.10;;;;;;;17.88;56.07;101712.00;7366762;19;20018;-62
2022/07/11 04:09:47;;;;;;;0.00;0.00;;;;;;;17.81;55.93;101699.97;7363483;19;20006;-62
2022/07/11 04:12:12;;;;;;;0.00;0.00;;;;;;;17.85;56.07;101717.44;7364758;19;20007;-62
2022/07/11 04:14:38;;;;;;;0.00;0.00;;;;;;;17.79;55.41;101704.44;7364733;19;20626;-62
2022/07/11 04:17:04;;;;;;;0.00;0.00;;;;;;;17.78;55.48;101700.06;7364990;19;20018;-62
2022/07/11 04:19:29;;;;;;;0.00;0.00;;;;;;;17.79;55.34;101695.63;7364784;19;20010;-62
2022/07/11 04:21:56;;;;;;;0.00;0.00;;;;;;;17.74;55.62;101698.47;7363744;19;20026;-62
2022/07/11 04:24:21;;;;;;;0.00;0.00;;;;;;;17.56;55.15;101667.41;7364966;19;20447;-62
2022/07/11 04:26:47;;;;;;;0.08;0.08;;;;;;;17.68;55.09;101697.78;7364729;19;20018;-63
2022/07/11 04:29:12;;;;;;;0.00;0.00;;;;;;;17.68;54.73;101696.00;7364203;19;20006;-62
2022/07/11 04:31:38;;;;;;;0.00;0.00;;;;;;;17.55;54.81;101684.16;7364372;19;20048;-62
2022/07/11 04:34:04;;;;;;;0.00;0.00;;;;;;;17.61;55.08;101692.72;7363795;19;20793;-62
2022/07/11 04:36:29;;;;;;;0.00;0.00;;;;;;;17.59;54.91;101691.06;7362862;19;20037;-62
2022/07/11 04:38:54;;;;;;;0.00;0.00;;;;;;;17.56;53.96;101685.88;7363849;19;20033;-62
2022/07/11 04:41:20;;;;;;;0.00;0.00;;;;;;;17.54;54.98;101690.38;7362369;19;20465;-62
2022/07/11 04:43:45;;;;;;;0.00;0.00;;;;;;;17.52;55.05;101692.19;7362538;19;20659;-62
2022/07/11 04:46:11;;;;;;;0.00;0.00;;;;;;;17.48;55.40;101693.22;7363694;19;20022;-62
2022/07/11 04:48:39;;;;;;;0.00;0.00;;;;;;;17.36;55.19;101679.53;7360876;19;20015;-62
2022/07/11 04:51:06;;;;;;;0.00;0.00;;;;;;;17.44;55.05;101694.25;7364670;19;20042;-63
2022/07/11 04:53:31;;;;;;;0.00;0.00;;;;;;;17.43;55.43;101697.78;7363567;19;20013;-62
2022/07/11 04:55:56;;;;;;;0.00;0.00;;;;;;;17.30;55.58;101679.75;7362137;19;20035;-63
2022/07/11 04:58:22;;;;;;;0.00;0.00;;;;;;;17.42;56.18;101688.16;7367419;19;20015;-63
2022/07/11 05:00:47;;;;;;;0.00;0.00;;;;;;;17.34;56.14;101678.75;7371413;19;20463;-63
2022/07/11 05:03:14;;;;;;;0.00;0.00;;;;;;;17.40;56.19;101690.88;7365642;19;20034;-63
2022/07/11 05:05:40;;;;;;;0.00;0.00;;;;;;;17.37;55.62;101689.16;7369843;19;20031;-63
2022/07/11 05:08:06;;;;;;;0.00;0.00;;;;;;;17.32;55.37;101688.47;7368479;19;20028;-63
2022/07/11 05:10:33;;;;;;;0.00;0.00;;;;;;;17.31;56.61;101684.13;7371276;19;24632;-63
2022/07/11 05:12:58;;;;;;;0.00;0.00;;;;;;;17.29;57.52;101679.81;7369093;19;20367;-63
2022/07/11 05:15:24;;;;;;;0.00;0.00;;;;;;;17.28;57.23;101678.06;7368016;19;20019;-62
2022/07/11 05:17:49;;;;;;;0.05;0.05;;;;;;;17.32;57.24;101685.84;7366988;19;20041;-62
2022/07/11 05:20:15;;;;;;;0.10;0.10;;;;;;;17.32;57.53;101693.75;7367722;19;20010;-63
2022/07/11 05:22:40;;;;;;;0.00;0.00;;;;;;;17.31;56.91;101684.13;7368827;19;20027;-62
2022/07/11 05:25:06;;;;;;;0.00;0.00;;;;;;;17.34;57.77;101686.66;7370527;19;20050;-62
2022/07/11 05:27:31;;;;;;;0.10;0.10;;;;;;;17.34;57.15;101680.53;7366784;19;20442;-63
2022/07/11 05:29:57;;;;;;;0.00;0.00;;;;;;;17.37;57.41;101683.88;7366463;19;20013;-63
2022/07/11 05:32:22;;;;;;;0.10;0.10;;;;;;;17.40;57.95;101687.38;7367169;19;20011;-63
2022/07/11 05:34:47;;;;;;;0.00;0.00;;;;;;;17.42;57.23;101690.78;7368768;19;20201;-63
2022/07/11 05:37:13;;;;;;;0.00;0.00;;;;;;;17.45;56.56;101690.69;7369408;19;20010;-63
2022/07/11 05:39:38;;;;;;;0.08;0.08;;;;;;;17.46;57.35;101693.28;7369131;19;20006;-62
2022/07/11 05:42:04;;;;;;;0.00;0.00;;;;;;;17.48;56.93;101690.56;7367675;19;20010;-62
2022/07/11 05:44:30;;;;;;;0.00;0.00;;;;;;;17.52;57.55;101697.47;7365265;19;20011;-63
2022/07/11 05:47:02;;;;;;;0.10;0.10;;;;;;;17.57;56.40;101690.25;7368623;19;20003;-62
2022/07/11 05:49:31;;;;;;;0.03;0.03;;;;;;;17.60;57.30;101693.66;7369114;19;20006;-62
2022/07/11 05:51:56;;;;;;;0.10;0.10;;;;;;;17.62;57.72;101689.16;7367840;19;20213;-63
2022/07/11 05:54:22;;;;;;;0.00;0.00;;;;;;;17.68;58.78;101688.06;7367793;19;20062;-62
2022/07/11 05:56:47;;;;;;;0.00;0.00;;;;;;;17.60;56.90;101664.59;7367923;19;20036;-62
2022/07/11 05:59:14;;;;;;;0.00;0.00;;;;;;;17.80;58.08;101686.81;7366392;19;20007;-62
2022/07/11 06:01:39;;;;;;;0.00;0.00;;;;;;;17.85;59.12;101691.00;7365535;19;20031;-63
2022/07/11 06:04:05;;;;;;;0.00;0.00;;;;;;;17.93;59.50;101687.19;7367360;19;20006;-62
2022/07/11 06:06:30;;;;;;;0.00;0.00;;;;;;;18.00;58.88;101680.78;7363155;19;20031;-63
2022/07/11 06:08:56;;;;;;;0.03;0.03;;;;;;;18.08;59.09;101681.34;7363336;19;20031;-63
2022/07/11 06:11:21;;;;;;;0.10;0.10;;;;;;;18.12;59.42;101677.66;7365998;19;20013;-63
2022/07/11 06:13:49;;;;;;;0.00;0.00;;;;;;;18.20;59.31;101665.03;7366286;19;20011;-63
2022/07/11 06:16:16;;;;;;;0.00;0.00;;;;;;;18.28;59.65;101673.50;7363127;19;20034;-62
2022/07/11 06:18:42;;;;;;;0.00;0.00;;;;;;;18.32;59.69;101675.09;7364612;19;20038;-62
2022/07/11 06:21:07;;;;;;;0.10;0.10;;;;;;;18.41;59.61;101680.03;7356563;19;20095;-63
2022/07/11 06:23:36;;;;;;;0.10;0.10;;;;;;;18.49;58.96;101684.13;7362210;19;20043;-62
2022/07/11 06:26:02;;;;;;;0.00;0.00;;;;;;;18.54;57.45;101674.22;7361161;19;20010;-63
2022/07/11 06:28:27;;;;;;;0.00;0.00;;;;;;;18.60;58.75;101676.63;7359784;19;20026;-62
2022/07/11 06:30:53;;;;;;;0.00;0.00;;;;;;;18.66;57.75;101679.06;7364860;19;20006;-62
2022/07/11 06:33:19;;;;;;;0.10;0.10;;;;;;;18.71;57.52;101679.75;7364627;19;20019;-63
2022/07/11 06:35:45;;;;;;;0.03;0.03;;;;;;;18.79;58.07;101680.28;7364949;19;20006;-63
2022/07/11 06:38:11;;;;;;;0.10;0.10;;;;;;;18.86;57.72;101678.25;7363725;19;20014;-63
2022/07/11 06:40:37;;;;;;;0.00;0.00;;;;;;;18.91;58.36;101679.78;7365387;19;20017;-63
2022/07/11 06:43:02;;;;;;;0.00;0.00;;;;;;;19.00;56.98;101675.00;7363341;19;20010;-63
2022/07/11 06:45:28;;;;;;;0.00;0.00;;;;;;;19.06;56.70;101673.00;7367107;19;20481;-63
2022/07/11 06:47:53;;;;;;;0.00;0.00;;;;;;;19.14;57.80;101678.78;7364762;19;20010;-63
2022/07/11 06:50:19;;;;;;;0.00;0.00;;;;;;;19.23;57.95;101682.00;7363038;19;20061;-63
2022/07/11 06:52:46;;;;;;;0.00;0.00;;;;;;;19.29;57.60;101679.94;7364564;19;20014;-63
2022/07/11 06:55:12;;;;;;;0.00;0.00;;;;;;;19.37;57.84;101683.13;7361675;19;20102;-63
2022/07/11 06:57:37;;;;;;;0.00;0.00;;;;;;;19.48;58.17;101681.78;7363411;19;20109;-63
2022/07/11 07:00:04;;;;;;;0.08;0.08;;;;;;;19.56;57.88;101675.19;7363925;19;20010;-63
2022/07/11 07:02:30;;;;;;;0.00;0.00;;;;;;;19.65;58.35;101676.59;7362322;19;20341;-63
2022/07/11 07:04:58;;;;;;;0.00;0.00;;;;;;;19.75;57.80;101672.59;7364938;19;20007;-63
2022/07/11 07:07:24;;;;;;;0.10;0.10;;;;;;;19.84;57.60;101664.25;7366589;19;20118;-64
2022/07/11 07:09:52;;;;;;;0.00;0.00;;;;;;;19.98;58.25;101665.41;7362450;19;20010;-63
2022/07/11 07:12:17;;;;;;;0.00;0.00;;;;;;;20.06;58.97;101665.88;7365587;19;20036;-63
2022/07/11 07:14:43;;;;;;;0.00;0.00;;;;;;;20.18;59.63;101668.84;7364730;19;20022;-62
2022/07/11 07:17:08;;;;;;;0.10;0.10;;;;;;;20.29;58.44;101662.16;7361988;19;20009;-63
2022/07/11 07:19:33;;;;;;;0.10;0.10;;;;;;;20.41;59.48;101672.16;7366775;19;20022;-63
2022/07/11 07:21:59;;;;;;;0.05;0.05;;;;;;;20.52;58.48;101664.56;7362303;19;20006;-63
2022/07/11 07:24:24;;;;;;;0.08;0.08;;;;;;;20.65;59.07;101671.00;7364961;19;20006;-62
2022/07/11 07:26:50;;;;;;;0.10;0.10;;;;;;;20.76;58.21;101665.16;7362850;19;20014;-62
2022/07/11 07:29:15;;;;;;;0.10;0.10;;;;;;;20.87;57.52;101670.78;7365079;19;20026;-62
2022/07/11 07:31:41;;;;;;;0.00;0.00;;;;;;;20.99;57.85;101672.84;7362209;19;20101;-62
2022/07/11 07:34:08;;;;;;;0.00;0.00;;;;;;;21.11;57.44;101668.69;7368150;19;20085;-63
2022/07/11 07:36:33;;;;;;;0.00;0.00;;;;;;;21.24;58.07;101679.56;7359173;19;20038;-62
2022/07/11 07:38:58;;;;;;;0.00;0.00;;;;;;;21.37;57.28;101675.34;7364531;19;20010;-63
2022/07/11 07:41:24;;;;;;;0.10;0.10;;;;;;;21.47;57.70;101671.25;7356993;19;20014;-63
2022/07/11 07:43:51;;;;;;;0.00;0.00;;;;;;;21.37;57.83;101640.78;7363320;19;20010;-62
2022/07/11 07:46:16;;;;;;;0.00;0.00;;;;;;;21.73;58.08;101682.31;7359847;19;20018;-62
2022/07/11 07:48:42;;;;;;;0.10;0.10;;;;;;;21.83;57.75;101683.53;7364555;19;20058;-62
2022/07/11 07:51:07;;;;;;;0.10;0.10;;;;;;;21.93;57.32;101691.84;7359405;19;20018;-63
2022/07/11 07:53:33;;;;;;;0.10;0.10;;;;;;;22.05;57.37;101692.97;7362698;19;20011;-63
2022/07/11 07:55:58;;;;;;;0.10;0.10;;;;;;;22.14;57.08;101687.19;7358752;19;20021;-62
2022/07/11 07:58:24;;;;;;;0.10;0.10;;;;;;;22.22;57.17;101684.97;7357408;19;20034;-62
2022/07/11 08:03:33;;;;;;;0.10;0.10;;;;;;;22.39;56.65;101681.34;7363846;19;20018;-62
2022/07/11 08:05:58;;;;;;;0.00;0.00;;;;;;;22.45;56.45;101684.50;7363982;19;20014;-63
2022/07/11 08:08:24;;;;;;;0.10;0.10;;;;;;;22.48;56.63;101676.38;7362718;19;20017;-62
2022/07/11 08:10:51;;;;;;;0.10;0.10;;;;;;;22.59;56.28;101677.56;7357860;19;20120;-63
2022/07/11 08:13:17;;;;;;;0.08;0.08;;;;;;;22.66;56.69;101679.78;7359588;19;20018;-63
2022/07/11 08:15:42;;;;;;;0.10;0.10;;;;;;;22.66;55.98;101668.28;7362524;19;21775;-62
2022/07/11 08:18:08;;;;;;;0.10;0.10;;;;;;;22.78;56.42;101675.56;7363678;19;20019;-63
2022/07/11 08:20:33;;;;;;;0.10;0.10;;;;;;;22.83;56.52;101681.47;7362605;19;20015;-62
2022/07/11 08:23:03;;;;;;;0.00;0.00;;;;;;;22.94;55.98;101679.06;7364773;19;20026;-62
2022/07/11 08:25:30;;;;;;;0.10;0.10;;;;;;;22.95;57.13;101680.75;7363604;19;20018;-62
2022/07/11 08:27:55;;;;;;;0.10;0.10;;;;;;;22.96;56.64;101677.19;7363141;19;20015;-62
2022/07/11 08:30:21;;;;;;;0.10;0.10;;;;;;;23.08;57.07;101680.06;7362519;19;20017;-62
2022/07/11 08:32:46;;;;;;;0.10;0.10;;;;;;;23.15;57.45;101676.91;7365192;19;20031;-63
2022/07/11 08:35:14;;;;;;;0.10;0.10;;;;;;;23.24;57.76;101676.38;7362634;19;20018;-62
2022/07/11 08:37:39;;;;;;;0.10;0.10;;;;;;;23.36;57.43;101674.75;7362750;19;20347;-62
2022/07/11 08:40:05;;;;;;;0.10;0.10;;;;;;;23.48;56.78;101676.69;7363854;19;20010;-63
2022/07/11 08:42:30;;;;;;;0.10;0.10;;;;;;;23.49;56.86;101664.22;7362493;19;20026;-62
2022/07/11 08:44:57;;;;;;;0.00;0.00;;;;;;;23.74;57.01;101682.25;7363695;19;20057;-62
2022/07/11 08:47:23;;;;;;;0.00;0.00;;;;;;;23.82;56.23;101674.59;7361528;19;20708;-62
2022/07/11 08:49:49;;;;;;;0.10;0.10;;;;;;;23.97;55.94;101676.31;7363939;19;20007;-62
2022/07/11 08:52:16;;;;;;;0.10;0.10;;;;;;;24.10;55.70;101670.22;7362683;19;20011;-62
2022/07/11 08:54:42;;;;;;;0.10;0.10;;;;;;;24.23;55.41;101671.13;7362737;19;20470;-62
2022/07/11 08:57:08;;;;;;;0.10;0.10;;;;;;;24.31;53.32;101663.47;7359666;19;20014;-63
2022/07/11 08:59:37;;;;;;;0.10;0.10;;;;;;;24.49;51.07;101667.66;7356625;19;20015;-62
2022/07/11 09:02:05;;;;;;;0.10;0.10;;;;;;;24.62;48.42;101661.50;7333151;19;20014;-62
2022/07/11 09:04:30;;;;;;;0.10;0.10;;;;;;;24.72;49.51;101662.59;7360686;19;20110;-63
2022/07/11 09:06:59;;;;;;;0.00;0.00;;;;;;;24.81;48.32;101656.63;7358911;19;20092;-63
2022/07/11 09:09:24;;;;;;;0.05;0.05;;;;;;;24.92;47.56;101658.56;7358978;19;20007;-62
2022/07/11 09:11:51;;;;;;;0.10;0.10;;;;;;;25.00;46.81;101654.44;7352440;19;20482;-62
2022/07/11 09:14:47;;;;;;;0.10;0.10;;;;;;;25.18;48.74;101652.31;7339340;19;20049;-62
2022/07/11 09:17:13;;;;;;;0.10;0.10;;;;;;;25.15;46.76;101643.69;7257068;19;2004452;-62
2022/07/11 09:19:39;;;;;;;0.10;0.10;;;;;;;25.29;45.83;101640.88;7355548;19;20014;-63
2022/07/11 09:25:23;;;;;;;0.10;0.10;;;;;;;25.42;45.60;101640.91;7254964;19;2004562;-62
2022/07/11 09:28:06;;;;;;;0.10;0.10;;;;;;;25.54;47.12;101638.19;7260529;19;2005138;-62
2022/07/11 09:30:39;;;;;;;0.10;0.10;;;;;;;25.54;45.31;101632.84;7363758;19;20053;-62
2022/07/11 09:33:09;;;;;;;0.10;0.10;;;;;;;25.70;45.46;101631.75;7355656;19;20010;-62
2022/07/11 09:35:37;;;;;;;0.10;0.10;;;;;;;25.75;44.34;101621.59;7355214;19;20014;-62
2022/07/11 09:38:04;;;;;;;0.00;0.00;;;;;;;25.90;43.36;101617.81;7357097;19;20050;-62
2022/07/11 09:40:30;;;;;;;0.00;0.00;;;;;;;26.05;43.03;101608.66;7355677;19;20017;-62
2022/07/11 09:42:58;;;;;;;0.10;0.10;;;;;;;26.25;43.40;101603.66;7355917;19;20037;-62
2022/07/11 09:45:29;;;;;;;0.00;0.00;;;;;;;26.51;43.55;101609.78;7364426;19;20482;-63
2022/07/11 09:47:57;;;;;;;0.10;0.10;;;;;;;26.64;42.22;101605.22;7362064;19;20029;-62
2022/07/11 09:50:30;;;;;;;0.10;0.10;;;;;;;26.87;43.39;101596.28;7365065;19;20018;-62
2022/07/11 09:53:10;;;;;;;0.10;0.10;;;;;;;27.06;43.64;101584.94;7361575;19;20020;-62
2022/07/11 09:55:48;;;;;;;0.10;0.10;;;;;;;27.43;42.64;101587.47;7363828;19;20031;-62
2022/07/11 09:58:15;;;;;;;0.00;0.00;;;;;;;27.60;42.37;101584.25;7361147;19;20010;-62
2022/07/11 10:00:41;;;;;;;0.05;0.05;;;;;;;27.88;40.69;101587.44;7362655;19;20133;-63
2022/07/11 10:03:08;;;;;;;0.08;0.08;;;;;;;28.06;40.52;101574.31;7362669;19;20740;-62
2022/07/11 10:05:35;;;;;;;0.10;0.10;;;;;;;28.21;40.65;101583.78;7361562;19;20014;-63
2022/07/11 10:08:01;;;;;;;0.00;0.00;;;;;;;28.41;39.14;101574.09;7361907;19;20018;-62
2022/07/11 10:10:29;;;;;;;0.00;0.00;;;;;;;28.59;38.68;101569.84;7363290;19;20336;-62
2022/07/11 10:12:55;;;;;;;0.10;0.10;;;;;;;28.69;38.99;101573.47;7363290;19;20039;-62
2022/07/11 10:15:29;;;;;;;0.00;0.00;;;;;;;28.90;39.10;101575.28;7364147;19;20006;-63
2022/07/11 10:18:09;;;;;;;0.00;0.00;;;;;;;28.94;37.82;101560.59;7360914;19;20023;-63
2022/07/11 10:20:58;;;;;;;0.10;0.10;;;;;;;28.99;38.31;101553.00;7362469;19;20765;-62
2022/07/11 10:23:40;;;;;;;;;;;;;;;29.02;40.44;101550.03;7364565;19;21395;-63
2022/07/11 10:26:40;;;;;;;0.10;0.10;;;;;;;29.00;38.54;101562.78;7364017;19;19922;-63
2022/07/11 10:29:14;;;;;;;0.10;0.10;;;;;;;28.96;37.11;101555.97;7252718;19;2004263;-62
2022/07/11 10:31:40;;;;;;;0.00;0.00;;;;;;;28.92;35.97;101562.56;7363705;19;20634;-62
2022/07/11 10:34:10;;;;;;;0.05;0.05;;;;;;;28.93;36.70;101564.25;7359625;19;20066;-62
2022/07/11 10:36:43;;;;;;;0.00;0.00;;;;;;;28.92;35.94;101562.56;7362876;19;20865;-62
2022/07/11 10:39:14;;;;;;;0.10;0.10;;;;;;;28.84;36.73;101562.34;7364539;19;20010;-62
2022/07/11 10:41:40;;;;;;;0.10;0.10;;;;;;;28.72;36.44;101563.41;7360244;19;20010;-63
2022/07/11 10:44:06;;;;;;;0.10;0.10;;;;;;;28.65;36.16;101566.66;7364498;19;23121;-62
2022/07/11 10:46:32;;;;;;;0.10;0.10;;;;;;;28.62;37.34;101577.63;7360615;19;20011;-62
2022/07/11 10:49:29;;;;;;;0.10;0.10;;;;;;;28.79;38.30;101578.03;7357208;19;21959;-62
2022/07/11 10:52:03;;;;;;;0.10;0.10;;;;;;;28.86;38.16;101568.47;7262315;19;2004233;-62
2022/07/11 10:54:37;;;;;;;0.00;0.00;;;;;;;28.92;37.42;101574.16;7363380;19;20376;-62
2022/07/11 10:57:19;;;;;;;0.05;0.05;;;;;;;29.14;38.28;101559.72;7362042;19;20366;-62
2022/07/11 11:00:00;;;;;;;0.00;0.00;;;;;;;29.37;37.98;101567.63;7364120;19;20043;-63
2022/07/11 11:02:26;;;;;;;0.00;0.00;;;;;;;29.48;37.49;101564.81;7363116;19;20002;-62
2022/07/11 11:05:00;;;;;;;0.08;0.08;;;;;;;29.63;37.69;101562.63;7364539;19;20023;-63
2022/07/11 11:07:29;;;;;;;0.00;0.00;;;;;;;29.81;36.76;101558.28;7363158;19;20027;-62
2022/07/11 11:09:55;;;;;;;0.00;0.00;;;;;;;29.87;37.03;101554.19;7362828;19;20498;-62
2022/07/11 11:12:20;;;;;;;0.10;0.10;;;;;;;29.99;37.60;101553.06;7362778;19;20025;-62
2022/07/11 11:14:46;;;;;;;0.00;0.00;;;;;;;30.12;36.97;101559.06;7364501;19;20038;-62
2022/07/11 11:17:36;;;;;;;0.00;0.00;;;;;;;30.41;38.17;101542.84;7366474;19;20014;-62
2022/07/11 11:20:04;;;;;;;0.10;0.10;;;;;;;30.45;36.80;101535.34;7263059;19;2004585;-62
2022/07/11 11:22:30;;;;;;;0.00;0.00;;;;;;;30.65;36.25;101545.09;7365334;19;20018;-63
2022/07/11 11:24:56;;;;;;;0.00;0.00;;;;;;;30.79;36.81;101532.19;7364838;19;20022;-62
2022/07/11 11:27:26;;;;;;;0.00;0.00;;;;;;;31.00;36.15;101533.69;7365614;19;20395;-62
2022/07/11 11:29:54;;;;;;;0.10;0.10;;;;;;;31.06;35.89;101526.84;7362417;19;20518;-62
2022/07/11 11:32:21;;;;;;;0.00;0.00;;;;;;;31.10;36.02;101522.00;7359660;19;20038;-61